Time;durP1;ratioP1;P1;durP2;ratioP2;P2;SDS_P1;SDS_P2;PMS_P1;PMS_P2;Temp;Humidity;BMP_temperature;BMP_pressure;BME280_temperature;BME280_humidity;BME280_pressure;Samples;Min_cycle;Max_cycle;Signal;HPM_P1;HPM_P2
2021/11/05 00:00:20;;;;;;;4.57;4.17;;;17.80;61.60;;;;;;5055902;28;20206;-66
2021/11/05 00:02:53;;;;;;;4.67;4.27;;;17.70;61.50;;;;;;5060425;28;20636;-65
2021/11/05 00:05:25;;;;;;;4.13;3.73;;;17.70;61.50;;;;;;5059974;28;20232;-66
2021/11/05 00:07:57;;;;;;;4.47;4.07;;;17.70;61.60;;;;;;5037273;28;20264;-66
2021/11/05 00:10:27;;;;;;;3.90;3.60;;;17.70;61.60;;;;;;5043356;28;20218;-66
2021/11/05 00:12:59;;;;;;;3.90;3.60;;;17.70;61.60;;;;;;5062698;28;20205;-66
2021/11/05 00:15:28;;;;;;;3.97;3.57;;;17.70;61.60;;;;;;5034869;28;20680;-65
2021/11/05 00:17:58;;;;;;;4.37;3.97;;;17.60;61.60;;;;;;5043502;28;20194;-65
2021/11/05 00:20:28;;;;;;;3.83;3.53;;;17.70;61.60;;;;;;5044465;28;20205;-65
2021/11/05 00:22:58;;;;;;;4.40;4.00;;;17.60;61.60;;;;;;5052619;28;20224;-66
2021/11/05 00:25:30;;;;;;;4.43;3.93;;;17.60;61.60;;;;;;5040475;28;20255;-65
2021/11/05 00:28:03;;;;;;;4.57;4.10;;;17.60;61.60;;;;;;5056657;28;20643;-65
2021/11/05 00:30:34;;;;;;;3.93;3.57;;;17.60;62.30;;;;;;5051599;28;20545;-65
2021/11/05 00:33:03;;;;;;;3.83;3.43;;;17.60;61.70;;;;;;4887654;28;4432603;-65
2021/11/05 00:35:46;;;;;;;4.17;3.80;;;17.60;61.70;;;;;;5034397;28;20296;-65
2021/11/05 00:38:16;;;;;;;4.20;3.90;;;17.60;61.70;;;;;;5045085;28;20563;-65
2021/11/05 00:40:44;;;;;;;3.70;3.40;;;17.60;61.70;;;;;;5030564;28;20203;-65
2021/11/05 00:43:14;;;;;;;4.33;3.53;;;17.60;61.70;;;;;;5046916;28;21571;-65
2021/11/05 00:45:46;;;;;;;3.60;3.30;;;17.60;61.80;;;;;;5044859;28;20505;-65
2021/11/05 00:48:18;;;;;;;3.47;3.17;;;17.60;61.80;;;;;;5045603;28;20211;-66
2021/11/05 00:50:48;;;;;;;4.13;3.43;;;17.50;61.80;;;;;;5027236;28;20543;-66
2021/11/05 00:53:20;;;;;;;4.20;3.73;;;17.50;61.80;;;;;;5045466;28;20293;-66
2021/11/05 00:55:50;;;;;;;3.63;3.33;;;17.50;61.80;;;;;;5046012;28;20575;-65
2021/11/05 00:58:32;;;;;;;3.57;3.27;;;17.50;61.80;;;;;;5046320;28;20226;-65
2021/11/05 01:01:07;;;;;;;3.43;3.13;;;17.50;61.90;;;;;;5048713;28;20212;-65
2021/11/05 01:03:37;;;;;;;3.53;3.23;;;17.50;61.90;;;;;;5040473;28;20222;-65
2021/11/05 01:06:09;;;;;;;3.83;3.43;;;17.50;61.90;;;;;;5028756;28;20194;-65
2021/11/05 01:08:40;;;;;;;3.57;3.13;;;17.50;61.90;;;;;;5046903;28;20542;-65
2021/11/05 01:11:10;;;;;;;3.20;2.90;;;17.50;61.90;;;;;;5043644;28;20202;-65
2021/11/05 01:13:46;;;;;;;3.50;3.10;;;17.50;61.90;;;;;;5025577;28;20217;-65
2021/11/05 01:16:23;;;;;;;3.50;3.20;;;17.50;61.90;;;;;;5040482;28;20676;-66
2021/11/05 01:18:53;;;;;;;3.43;3.13;;;17.40;61.80;;;;;;5030669;28;20195;-65
2021/11/05 01:21:22;;;;;;;3.60;3.30;;;17.40;61.90;;;;;;5027838;28;20198;-65
2021/11/05 01:23:54;;;;;;;3.77;3.47;;;17.40;61.90;;;;;;5047233;28;20218;-65
2021/11/05 01:26:26;;;;;;;4.03;3.20;;;17.40;61.90;;;;;;5039099;28;20816;-65
2021/11/05 01:28:55;;;;;;;2.73;2.53;;;17.40;61.90;;;;;;5045502;28;20202;-65
2021/11/05 01:31:48;;;;;;;3.50;2.97;;;17.40;61.90;;;;;;5043864;28;20202;-65
2021/11/05 01:34:20;;;;;;;2.83;2.63;;;17.40;62.10;;;;;;5040000;28;20263;-65
2021/11/05 01:36:52;;;;;;;3.30;3.00;;;17.40;62.00;;;;;;5028739;28;20256;-65
2021/11/05 01:39:26;;;;;;;3.43;3.13;;;17.40;61.90;;;;;;5044060;28;20210;-65
2021/11/05 01:42:02;;;;;;;3.17;2.87;;;17.40;61.90;;;;;;5046820;28;20241;-65
2021/11/05 01:44:32;;;;;;;3.20;2.90;;;17.40;62.00;;;;;;5046809;28;20206;-65
2021/11/05 01:47:02;;;;;;;3.13;2.80;;;17.40;62.00;;;;;;5025482;28;20613;-65
2021/11/05 01:49:35;;;;;;;3.63;3.07;;;17.40;62.00;;;;;;5030982;28;20213;-65
2021/11/05 01:52:07;;;;;;;3.53;3.23;;;17.40;62.60;;;;;;5039552;28;20863;-65
2021/11/05 01:54:37;;;;;;;3.00;2.80;;;17.30;61.90;;;;;;5042459;28;20230;-69
2021/11/05 01:57:09;;;;;;;3.07;2.77;;;17.30;62.00;;;;;;5046084;28;20202;-65
2021/11/05 01:59:41;;;;;;;3.47;3.17;;;17.30;62.00;;;;;;5047174;28;20194;-65
2021/11/05 02:02:12;;;;;;;2.60;2.40;;;17.30;62.00;;;;;;5039278;28;20561;-66
2021/11/05 02:04:43;;;;;;;3.37;3.07;;;17.30;62.00;;;;;;5045789;28;20459;-65
2021/11/05 02:07:17;;;;;;;2.93;2.73;;;17.30;62.00;;;;;;5044250;28;20241;-66
2021/11/05 02:09:50;;;;;;;3.00;2.80;;;17.30;62.00;;;;;;5046647;28;20667;-66
2021/11/05 02:12:21;;;;;;;2.97;2.77;;;17.30;62.00;;;;;;5038007;28;20734;-66
2021/11/05 02:14:54;;;;;;;3.13;2.70;;;17.30;62.00;;;;;;5042235;28;20234;-66
2021/11/05 02:17:25;;;;;;;3.20;2.90;;;17.30;62.60;;;;;;5046817;28;20211;-66
2021/11/05 02:19:58;;;;;;;2.97;2.47;;;17.30;62.00;;;;;;5047966;28;20194;-65
2021/11/05 02:22:28;;;;;;;2.50;2.30;;;17.30;62.10;;;;;;5046346;28;20198;-65
2021/11/05 02:25:03;;;;;;;2.73;2.53;;;17.20;62.00;;;;;;5014168;28;20202;-65
2021/11/05 02:27:34;;;;;;;3.17;2.40;;;17.20;62.00;;;;;;5034297;28;20268;-65
2021/11/05 02:30:12;;;;;;;2.73;2.50;;;17.30;62.10;;;;;;5031283;28;20237;-65
2021/11/05 02:32:50;;;;;;;3.07;2.73;;;17.20;62.00;;;;;;5030170;28;20226;-65
2021/11/05 02:35:23;;;;;;;2.63;2.43;;;17.20;62.00;;;;;;5043933;28;20219;-65
2021/11/05 02:38:04;;;;;;;2.83;2.63;;;17.20;62.00;;;;;;5041987;28;20277;-65
2021/11/05 02:40:32;;;;;;;3.67;2.50;;;17.20;62.10;;;;;;5026141;28;20206;-65
2021/11/05 02:43:01;;;;;;;3.57;2.33;;;17.20;62.10;;;;;;5012091;28;20252;-65
2021/11/05 02:45:34;;;;;;;3.03;2.50;;;17.20;62.10;;;;;;5026054;28;20211;-66
2021/11/05 02:48:06;;;;;;;3.20;2.23;;;17.20;62.10;;;;;;5033636;28;20223;-65
2021/11/05 02:50:39;;;;;;;2.43;2.23;;;17.20;62.10;;;;;;5043081;28;20312;-66
2021/11/05 02:53:10;;;;;;;2.50;2.30;;;17.20;62.10;;;;;;5046600;28;20715;-66
2021/11/05 02:55:42;;;;;;;2.60;2.40;;;17.20;62.10;;;;;;5044683;28;20236;-66
2021/11/05 02:58:21;;;;;;;2.50;2.27;;;17.20;62.10;;;;;;5041360;28;20689;-65
2021/11/05 03:00:53;;;;;;;2.40;2.20;;;17.20;62.10;;;;;;5045649;28;20641;-65
2021/11/05 03:03:22;;;;;;;2.00;1.90;;;17.20;62.10;;;;;;5044065;28;20549;-65
2021/11/05 03:05:54;;;;;;;2.50;2.20;;;17.20;62.10;;;;;;5043968;28;20601;-65
2021/11/05 03:08:27;;;;;;;2.27;2.10;;;17.20;62.10;;;;;;5047234;28;20210;-66
2021/11/05 03:11:01;;;;;;;2.60;2.40;;;17.10;62.00;;;;;;5050133;28;20190;-65
2021/11/05 03:13:31;;;;;;;3.00;2.60;;;17.10;62.10;;;;;;5048006;28;20208;-66
2021/11/05 03:16:03;;;;;;;2.53;2.30;;;17.10;62.10;;;;;;5048907;28;20222;-66
2021/11/05 03:18:38;;;;;;;2.13;2.00;;;17.10;62.10;;;;;;5053391;28;20199;-65
2021/11/05 03:21:07;;;;;;;2.27;2.07;;;17.10;62.10;;;;;;5040961;28;20201;-66
2021/11/05 03:23:40;;;;;;;2.97;1.90;;;17.10;62.10;;;;;;5032203;28;20202;-66
2021/11/05 03:26:12;;;;;;;1.97;1.87;;;17.10;62.10;;;;;;5052448;28;20198;-66
2021/11/05 03:28:43;;;;;;;2.47;2.20;;;17.10;62.10;;;;;;5033201;28;20198;-66
2021/11/05 03:31:14;;;;;;;2.40;2.20;;;17.10;62.10;;;;;;5048839;28;20199;-65
2021/11/05 03:33:45;;;;;;;2.50;2.17;;;17.10;62.10;;;;;;5042924;28;20239;-66
2021/11/05 03:36:20;;;;;;;3.80;2.40;;;17.10;62.20;;;;;;5044376;28;20206;-66
2021/11/05 03:38:52;;;;;;;2.40;2.20;;;17.10;62.10;;;;;;5059110;28;20328;-65
2021/11/05 03:41:23;;;;;;;2.90;2.27;;;17.10;62.10;;;;;;5033946;28;20202;-66
2021/11/05 03:43:52;;;;;;;2.73;2.10;;;17.10;62.10;;;;;;5041769;28;20267;-65
2021/11/05 03:46:23;;;;;;;2.23;2.07;;;17.10;62.20;;;;;;5040314;28;20198;-66
2021/11/05 03:48:55;;;;;;;2.40;2.20;;;17.10;62.10;;;;;;5062650;28;20628;-65
2021/11/05 03:51:23;;;;;;;1.83;1.73;;;17.00;62.20;;;;;;5042234;28;20624;-66
2021/11/05 03:53:51;;;;;;;2.50;2.13;;;17.10;62.20;;;;;;5044096;28;20232;-68
2021/11/05 03:56:21;;;;;;;2.00;1.63;;;17.10;62.20;;;;;;5057337;28;20648;-66
2021/11/05 03:59:04;;;;;;;2.43;2.00;;;17.10;62.30;;;;;;5061307;28;20194;-66
2021/11/05 04:01:32;;;;;;;1.70;1.60;;;17.10;62.20;;;;;;5060986;28;20189;-65
2021/11/05 04:04:16;;;;;;;1.80;1.70;;;17.00;62.20;;;;;;5045788;28;20292;-66
2021/11/05 04:06:48;;;;;;;1.93;1.80;;;17.00;62.20;;;;;;5055917;28;20210;-66
2021/11/05 04:09:16;;;;;;;2.43;2.17;;;17.00;62.10;;;;;;5062398;28;20427;-66
2021/11/05 04:11:47;;;;;;;2.20;2.00;;;17.00;62.20;;;;;;5056194;28;20202;-66
2021/11/05 04:14:19;;;;;;;1.83;1.73;;;17.00;62.20;;;;;;5048840;28;20191;-66
2021/11/05 04:16:49;;;;;;;1.90;1.80;;;16.90;62.70;;;;;;5036778;28;20676;-65
2021/11/05 04:19:18;;;;;;;1.97;1.87;;;17.00;62.20;;;;;;5038719;28;20190;-65
2021/11/05 04:21:47;;;;;;;2.93;2.63;;;17.00;62.20;;;;;;5046598;28;20222;-65
2021/11/05 04:24:18;;;;;;;1.90;1.70;;;17.00;62.30;;;;;;5044688;28;20252;-65
2021/11/05 04:26:48;;;;;;;4.93;2.03;;;16.90;62.20;;;;;;5042774;28;20228;-65
2021/11/05 04:29:19;;;;;;;1.97;1.80;;;17.00;62.30;;;;;;5053645;28;20209;-65
2021/11/05 04:31:54;;;;;;;6.00;1.60;;;17.00;62.20;;;;;;5059727;28;20205;-65
2021/11/05 04:34:30;;;;;;;2.00;1.90;;;16.90;62.20;;;;;;5046014;28;20312;-65
2021/11/05 04:37:02;;;;;;;2.37;1.90;;;17.00;62.20;;;;;;5042214;28;20300;-65
2021/11/05 04:39:32;;;;;;;2.30;2.10;;;16.90;62.20;;;;;;5061153;28;20213;-65
2021/11/05 04:42:04;;;;;;;1.83;1.47;;;16.90;62.10;;;;;;5057512;28;20197;-65
2021/11/05 04:44:35;;;;;;;1.70;1.60;;;16.90;62.20;;;;;;5037175;28;20212;-65
2021/11/05 04:47:06;;;;;;;2.00;1.80;;;16.90;62.20;;;;;;5059768;28;20635;-65
2021/11/05 04:49:35;;;;;;;1.53;1.30;;;16.90;62.20;;;;;;5054772;28;20213;-65
2021/11/05 04:52:07;;;;;;;1.70;1.60;;;16.90;62.20;;;;;;5043973;28;20212;-65
2021/11/05 04:54:36;;;;;;;2.13;1.80;;;16.90;62.20;;;;;;5064553;28;20201;-65
2021/11/05 04:57:09;;;;;;;2.03;1.93;;;16.90;62.20;;;;;;5057754;28;20237;-65
2021/11/05 04:59:42;;;;;;;2.07;1.87;;;16.90;62.20;;;;;;5063749;28;20198;-65
2021/11/05 05:02:14;;;;;;;2.03;1.60;;;16.90;62.30;;;;;;5058515;28;20221;-66
2021/11/05 05:04:46;;;;;;;1.47;1.37;;;16.90;62.30;;;;;;5063682;28;20262;-65
2021/11/05 05:07:17;;;;;;;1.60;1.50;;;16.90;62.30;;;;;;5028937;28;20649;-65
2021/11/05 05:09:48;;;;;;;2.50;1.80;;;16.90;62.30;;;;;;5047543;28;20523;-65
2021/11/05 05:12:21;;;;;;;2.83;1.73;;;16.90;62.30;;;;;;5041391;28;20263;-65
2021/11/05 05:15:06;;;;;;;1.70;1.27;;;16.90;62.20;;;;;;5053772;28;20321;-65
2021/11/05 05:17:36;;;;;;;1.40;1.30;;;16.80;62.10;;;;;;5059125;28;20232;-65
2021/11/05 05:20:09;;;;;;;1.50;1.40;;;16.90;62.20;;;;;;5061757;28;20637;-66
2021/11/05 05:22:38;;;;;;;1.47;1.37;;;16.90;62.20;;;;;;5029400;28;20237;-65
2021/11/05 05:25:07;;;;;;;2.20;1.53;;;16.90;62.20;;;;;;5043121;28;20207;-65
2021/11/05 05:27:43;;;;;;;1.70;1.60;;;16.80;62.10;;;;;;5057403;28;20220;-65
2021/11/05 05:30:21;;;;;;;1.50;1.40;;;16.90;62.10;;;;;;5039562;28;20550;-65
2021/11/05 05:32:57;;;;;;;1.17;1.10;;;16.80;62.10;;;;;;5061632;28;20240;-65
2021/11/05 05:35:27;;;;;;;2.17;1.83;;;16.90;62.10;;;;;;5062646;28;20217;-65
2021/11/05 05:37:59;;;;;;;1.70;1.60;;;16.90;62.00;;;;;;5048263;28;20198;-65
2021/11/05 05:40:30;;;;;;;1.80;1.70;;;16.90;62.00;;;;;;5055984;28;20840;-65
2021/11/05 05:43:00;;;;;;;1.73;1.63;;;16.90;62.00;;;;;;5063594;28;20793;-65
2021/11/05 05:45:29;;;;;;;1.80;1.70;;;16.80;61.90;;;;;;5057497;28;20211;-65
2021/11/05 05:47:59;;;;;;;1.43;1.33;;;16.80;61.90;;;;;;5039284;28;20245;-66
2021/11/05 05:50:26;;;;;;;1.73;1.40;;;16.80;61.90;;;;;;5042384;28;20297;-65
2021/11/05 05:53:01;;;;;;;1.60;1.47;;;16.80;61.90;;;;;;5030239;28;20225;-65
2021/11/05 05:55:34;;;;;;;1.90;1.30;;;16.80;61.90;;;;;;5059042;28;20209;-65
2021/11/05 05:58:03;;;;;;;1.57;1.47;;;16.80;61.90;;;;;;5053925;28;20634;-65
2021/11/05 06:00:37;;;;;;;1.60;1.50;;;16.80;61.90;;;;;;5057316;28;20215;-65
2021/11/05 06:03:21;;;;;;;1.60;1.27;;;16.80;61.90;;;;;;5059722;28;20249;-67
2021/11/05 06:05:57;;;;;;;1.67;1.40;;;16.90;61.90;;;;;;5056794;28;20260;-66
2021/11/05 06:08:36;;;;;;;1.33;1.23;;;16.80;61.90;;;;;;5055975;28;20625;-65
2021/11/05 06:11:09;;;;;;;1.40;1.30;;;16.80;61.80;;;;;;5060524;28;20654;-65
2021/11/05 06:13:44;;;;;;;1.70;1.60;;;16.80;61.80;;;;;;5044173;28;20206;-65
2021/11/05 06:16:14;;;;;;;3.23;1.40;;;16.80;61.80;;;;;;5051219;28;20257;-66
2021/11/05 06:18:45;;;;;;;1.67;1.53;;;16.80;61.80;;;;;;5042955;28;20566;-65
2021/11/05 06:21:18;;;;;;;3.10;1.23;;;16.80;61.90;;;;;;5026071;28;20201;-67
2021/11/05 06:23:46;;;;;;;5.50;2.43;;;16.80;61.80;;;;;;5028546;28;20298;-66
2021/11/05 06:26:17;;;;;;;9.53;2.87;;;16.80;62.00;;;;;;5071458;28;20193;-66
2021/11/05 06:28:47;;;;;;;13.87;3.93;;;16.80;62.10;;;;;;5043581;28;20229;-66
2021/11/05 06:31:18;;;;;;;14.83;4.30;;;16.80;62.10;;;;;;5071184;28;20218;-66
2021/11/05 06:34:01;;;;;;;19.63;5.50;;;16.80;62.10;;;;;;5042515;28;20232;-66
2021/11/05 06:36:33;;;;;;;17.97;5.80;;;16.80;62.10;;;;;;5052015;28;20581;-66
2021/11/05 06:39:04;;;;;;;17.87;5.20;;;16.80;62.00;;;;;;5064370;28;20194;-65
2021/11/05 06:41:33;;;;;;;15.80;5.77;;;16.80;62.00;;;;;;5031301;28;20229;-66
2021/11/05 06:44:05;;;;;;;34.20;10.20;;;16.70;61.90;;;;;;5056550;28;20206;-66
2021/11/05 06:46:34;;;;;;;45.20;12.13;;;16.80;62.50;;;;;;5040106;28;20214;-66
2021/11/05 06:49:02;;;;;;;34.70;11.30;;;16.80;63.30;;;;;;5048471;28;20219;-66
2021/11/05 06:51:33;;;;;;;34.93;11.03;;;16.80;62.50;;;;;;5063827;28;20217;-66
2021/11/05 06:54:02;;;;;;;38.97;11.20;;;16.80;62.40;;;;;;5065631;28;20639;-66
2021/11/05 06:56:31;;;;;;;27.70;9.77;;;16.80;62.10;;;;;;5063857;28;21043;-66
2021/11/05 06:59:03;;;;;;;29.20;10.20;;;16.80;61.90;;;;;;5065941;28;20291;-66
2021/11/05 07:01:45;;;;;;;31.73;9.60;;;16.80;61.90;;;;;;5060396;28;20285;-66
2021/11/05 07:04:15;;;;;;;31.00;9.40;;;16.70;61.80;;;;;;5050287;28;20203;-66
2021/11/05 07:06:49;;;;;;;24.23;7.63;;;16.70;61.70;;;;;;5038932;28;20648;-66
2021/11/05 07:09:22;;;;;;;24.53;7.83;;;16.80;61.80;;;;;;5048130;28;20225;-66
2021/11/05 07:11:54;;;;;;;26.23;8.63;;;16.70;61.70;;;;;;5049641;28;20209;-66
2021/11/05 07:14:27;;;;;;;17.87;6.83;;;16.70;61.50;;;;;;5049615;28;20255;-66
2021/11/05 07:16:56;;;;;;;14.00;6.63;;;16.70;61.50;;;;;;5058096;28;20244;-66
2021/11/05 07:19:26;;;;;;;24.70;7.20;;;16.70;61.40;;;;;;5060750;28;20598;-66
2021/11/05 07:22:04;;;;;;;19.20;6.23;;;16.70;61.20;;;;;;5062577;28;20212;-66
2021/11/05 07:24:39;;;;;;;16.47;5.77;;;16.70;61.30;;;;;;5049776;28;20213;-66
2021/11/05 07:27:11;;;;;;;17.70;5.80;;;16.70;61.20;;;;;;5059830;28;20189;-66
2021/11/05 07:29:42;;;;;;;11.97;4.80;;;16.70;61.30;;;;;;5044261;28;20962;-66
2021/11/05 07:32:10;;;;;;;15.27;5.77;;;16.70;61.10;;;;;;5057890;28;20234;-66
2021/11/05 07:34:40;;;;;;;15.73;5.93;;;16.70;61.20;;;;;;5062414;28;20672;-66
2021/11/05 07:37:18;;;;;;;13.30;5.10;;;16.70;61.20;;;;;;5064973;28;20664;-66
2021/11/05 07:39:53;;;;;;;10.53;4.80;;;16.70;61.10;;;;;;5062969;28;20676;-66
2021/11/05 07:42:22;;;;;;;15.40;4.87;;;16.70;61.10;;;;;;5057194;28;20279;-65
2021/11/05 07:44:53;;;;;;;11.97;4.83;;;16.80;61.20;;;;;;5064922;28;20221;-65
2021/11/05 07:47:25;;;;;;;9.77;4.83;;;16.70;61.10;;;;;;5045650;28;20205;-65
2021/11/05 07:49:57;;;;;;;8.97;3.73;;;16.70;61.00;;;;;;5042957;28;20206;-65
2021/11/05 07:52:28;;;;;;;11.17;4.70;;;16.70;61.00;;;;;;5035812;28;20647;-66
2021/11/05 07:54:58;;;;;;;20.80;6.80;;;16.80;61.00;;;;;;5049973;28;20228;-66
2021/11/05 07:57:28;;;;;;;25.33;8.20;;;16.70;61.60;;;;;;5057424;28;20643;-66
2021/11/05 07:59:58;;;;;;;29.13;8.67;;;16.70;64.40;;;;;;5064433;28;20198;-66
2021/11/05 08:02:32;;;;;;;21.27;7.33;;;16.90;64.80;;;;;;5049313;28;20187;-69
2021/11/05 08:05:00;;;;;;;18.83;6.70;;;17.00;64.40;;;;;;5056981;28;20629;-68
2021/11/05 08:07:30;;;;;;;17.60;6.90;;;17.20;63.80;;;;;;5057335;28;20260;-68
2021/11/05 08:09:58;;;;;;;18.83;6.37;;;17.40;63.30;;;;;;5057287;28;20650;-68
2021/11/05 08:12:27;;;;;;;14.70;6.20;;;17.60;62.70;;;;;;5053302;28;20264;-68
2021/11/05 08:14:56;;;;;;;12.13;5.10;;;17.80;62.10;;;;;;5061256;28;20204;-68
2021/11/05 08:17:27;;;;;;;13.43;5.20;;;18.00;61.70;;;;;;5017107;28;20246;-65
2021/11/05 08:19:57;;;;;;;11.90;5.30;;;18.10;61.20;;;;;;5056259;28;20952;-66
2021/11/05 08:22:27;;;;;;;11.47;5.30;;;18.20;60.80;;;;;;5060587;28;20206;-68
2021/11/05 08:25:19;;;;;;;11.00;4.23;;;18.40;60.50;;;;;;5043899;28;20201;-69
2021/11/05 08:27:48;;;;;;;9.57;4.03;;;18.50;60.10;;;;;;5056544;28;20224;-65
2021/11/05 08:30:23;;;;;;;8.43;4.20;;;18.70;60.00;;;;;;5035434;28;20190;-67
2021/11/05 08:33:01;;;;;;;7.80;4.70;;;18.70;59.60;;;;;;5029778;28;20229;-67
2021/11/05 08:35:32;;;;;;;8.13;3.77;;;18.90;59.40;;;;;;5062177;28;20220;-65
2021/11/05 08:38:08;;;;;;;7.07;3.60;;;19.00;59.10;;;;;;5031089;28;20594;-65
2021/11/05 08:40:38;;;;;;;11.10;4.33;;;19.10;59.10;;;;;;5044428;28;20214;-66
2021/11/05 08:43:13;;;;;;;6.93;3.37;;;19.10;58.80;;;;;;5052757;28;20226;-66
2021/11/05 08:45:44;;;;;;;7.53;3.73;;;19.20;58.70;;;;;;5043183;28;20206;-65
2021/11/05 08:48:17;;;;;;;8.03;3.30;;;19.30;58.80;;;;;;5044688;28;20206;-65
2021/11/05 08:50:47;;;;;;;6.07;3.07;;;19.40;58.50;;;;;;5045180;28;20281;-65
2021/11/05 08:53:17;;;;;;;5.47;2.93;;;19.50;58.20;;;;;;5043261;28;20225;-70
2021/11/05 08:55:48;;;;;;;6.70;3.03;;;19.50;57.80;;;;;;5027012;28;20632;-69
2021/11/05 08:58:18;;;;;;;7.67;3.07;;;19.50;58.30;;;;;;5043727;28;20222;-67
2021/11/05 09:00:48;;;;;;;6.03;2.77;;;19.70;58.20;;;;;;5061086;28;20193;-65
2021/11/05 09:03:19;;;;;;;4.57;2.30;;;19.90;58.30;;;;;;5040201;28;20251;-66
2021/11/05 09:05:50;;;;;;;6.20;2.60;;;20.00;57.90;;;;;;5058220;28;20209;-65
2021/11/05 09:08:26;;;;;;;3.43;2.17;;;20.20;57.90;;;;;;5039658;28;20381;-66
2021/11/05 09:10:59;;;;;;;4.30;2.53;;;20.30;57.50;;;;;;5043872;28;20201;-65
2021/11/05 09:13:36;;;;;;;3.53;2.27;;;20.50;57.10;;;;;;5062761;28;20201;-65
2021/11/05 09:16:03;;;;;;;5.47;2.60;;;20.70;56.80;;;;;;5041859;28;20193;-66
2021/11/05 09:18:34;;;;;;;4.30;2.10;;;20.70;56.50;;;;;;5059476;28;20241;-65
2021/11/05 09:21:09;;;;;;;3.73;2.23;;;20.90;56.10;;;;;;5037902;28;20197;-66
2021/11/05 09:23:40;;;;;;;4.17;2.13;;;21.00;55.80;;;;;;5042971;28;20196;-67
2021/11/05 09:26:10;;;;;;;3.63;2.00;;;21.10;55.60;;;;;;5061813;28;20210;-69
2021/11/05 09:28:38;;;;;;;3.03;1.97;;;21.20;55.20;;;;;;5055118;28;20667;-68
2021/11/05 09:31:08;;;;;;;3.87;1.90;;;21.40;55.00;;;;;;5048123;28;20212;-68
2021/11/05 09:33:39;;;;;;;2.13;1.50;;;21.50;54.80;;;;;;5027198;28;20226;-68
2021/11/05 09:36:09;;;;;;;3.07;1.60;;;21.60;54.60;;;;;;5017938;28;20199;-69
2021/11/05 09:38:40;;;;;;;3.00;1.77;;;21.70;54.40;;;;;;5037409;28;20195;-70
2021/11/05 09:41:10;;;;;;;3.37;1.90;;;21.80;54.20;;;;;;5036455;28;20224;-66
2021/11/05 09:43:43;;;;;;;1.93;1.30;;;21.90;53.90;;;;;;5042628;28;20206;-66
2021/11/05 09:46:17;;;;;;;3.73;1.50;;;22.00;53.70;;;;;;5011663;28;20235;-65
2021/11/05 09:48:53;;;;;;;3.37;1.57;;;22.10;53.50;;;;;;5025706;28;20197;-66
2021/11/05 09:51:23;;;;;;;2.83;1.30;;;22.20;53.30;;;;;;5056578;28;20214;-69
2021/11/05 09:53:53;;;;;;;1.27;1.07;;;22.30;53.10;;;;;;5039515;28;20218;-69
2021/11/05 09:56:29;;;;;;;2.03;1.10;;;22.40;53.00;;;;;;5043359;28;20190;-69
2021/11/05 09:59:00;;;;;;;2.87;1.20;;;22.50;53.00;;;;;;5042528;28;20198;-69
2021/11/05 10:01:30;;;;;;;3.03;1.37;;;22.50;52.70;;;;;;5042576;28;20202;-67
2021/11/05 10:04:01;;;;;;;1.43;1.20;;;22.60;52.60;;;;;;5037241;28;20229;-68
2021/11/05 10:06:37;;;;;;;1.67;1.13;;;22.70;52.50;;;;;;5018212;28;20217;-72
2021/11/05 10:09:15;;;;;;;1.43;1.10;;;22.70;52.30;;;;;;5010787;28;20218;-70
2021/11/05 10:11:46;;;;;;;1.53;1.07;;;22.80;52.20;;;;;;5031220;28;20206;-69
2021/11/05 10:14:19;;;;;;;1.80;1.13;;;22.90;52.20;;;;;;5042826;28;20207;-67
2021/11/05 10:17:05;;;;;;;1.60;1.20;;;23.00;52.00;;;;;;5028358;28;20614;-67
2021/11/05 10:19:52;;;;;;;1.80;1.10;;;23.10;51.90;;;;;;5030178;28;20202;-66
2021/11/05 10:22:46;;;;;;;2.27;1.20;;;23.10;51.80;;;;;;5050523;28;20532;-66
2021/11/05 10:25:47;;;;;;;1.20;1.10;;;23.20;51.80;;;;;;5029874;28;20187;-69
2021/11/05 10:28:24;;;;;;;1.30;0.90;;;23.30;51.60;;;;;;5013565;28;20557;-71
2021/11/05 10:31:21;;;;;;;3.30;1.40;;;23.30;51.40;;;;;;5041796;28;20251;-66
2021/11/05 10:33:51;;;;;;;1.40;0.90;;;23.40;51.20;;;;;;5057062;28;20717;-68
2021/11/05 10:36:31;;;;;;;1.40;0.90;;;23.60;51.20;;;;;;5038796;28;20629;-71
2021/11/05 10:39:07;;;;;;;1.13;0.90;;;23.70;51.10;;;;;;5013101;28;20197;-70
2021/11/05 10:41:37;;;;;;;1.73;0.93;;;23.80;50.90;;;;;;5058508;28;20252;-71
2021/11/05 10:44:14;;;;;;;1.63;0.90;;;;;;;;;;5062385;28;20264;-75
2021/11/05 10:47:05;;;;;;;1.77;1.07;;;;;;;;;;5051041;28;20716;-75
2021/11/05 10:49:40;;;;;;;4.43;1.03;;;;;;;;;;5046499;28;20206;-75
2021/11/05 10:52:20;;;;;;;1.70;1.20;;;;;;;;;;5041406;28;20209;-72
2021/11/05 10:54:59;;;;;;;0.93;0.80;;;;;;;;;;5063488;28;20216;-71
2021/11/05 10:57:44;;;;;;;0.70;0.70;;;;;;;;;;5053367;28;20221;-72
2021/11/05 11:00:27;;;;;;;1.60;0.80;;;;;;;;;;5050697;28;20493;-73
2021/11/05 11:03:31;;;;;;;1.50;0.90;;;;;;;;;;5054464;28;20365;-75
2021/11/05 11:06:18;;;;;;;0.93;0.80;;;;;;;;;;5058464;28;20209;-76
2021/11/05 11:09:02;;;;;;;2.53;0.77;;;;;;;;;;5054891;28;20673;-68
2021/11/05 11:11:37;;;;;;;7.73;1.57;;;;;;;;;;5053362;28;20282;-70
2021/11/05 11:14:23;;;;;;;2.37;0.90;;;;;;;;;;5060514;28;20191;-70
2021/11/05 11:16:58;;;;;;;1.60;1.00;;;;;;;;;;5036065;28;20245;-68
2021/11/05 11:19:37;;;;;;;1.77;1.00;;;;;;;;;;5067307;28;20197;-68
2021/11/05 11:22:09;;;;;;;1.33;0.90;;;;;;;;;;5056918;28;20730;-70
2021/11/05 11:24:44;;;;;;;1.90;1.10;;;;;;;;;;5064134;28;20198;-71
2021/11/05 11:27:17;;;;;;;2.20;0.90;;;;;;;;;;5058856;28;20193;-70
2021/11/05 11:29:58;;;;;;;2.03;1.00;;;;;;;;;;5060477;28;20222;-70
2021/11/05 11:32:41;;;;;;;3.10;1.23;;;;;;;;;;5064554;28;20241;-67
2021/11/05 11:35:15;;;;;;;6.53;1.00;;;;;;;;;;5059490;28;20295;-69
2021/11/05 11:37:45;;;;;;;0.90;0.70;;;;;;;;;;5043404;28;20527;-72
2021/11/05 11:40:16;;;;;;;2.77;1.20;;;;;;;;;;5026612;28;20216;-75
2021/11/05 11:43:02;;;;;;;2.00;0.93;;;;;;;;;;5062941;28;20204;-76
2021/11/05 11:45:35;;;;;;;3.17;1.00;;;;;;;;;;5065206;28;20662;-76
2021/11/05 11:48:33;;;;;;;1.07;0.63;;;;;;;;;;5037137;28;20218;-76
2021/11/05 11:51:30;;;;;;;1.30;0.80;;;;;;;;;;5060053;28;20229;-71
2021/11/05 11:54:23;;;;;;;0.70;0.40;;;;;;;;;;5062789;28;20249;-75
2021/11/05 11:57:18;;;;;;;1.10;0.80;;;;;;;;;;5061715;28;21697;-73
2021/11/05 12:00:06;;;;;;;1.13;0.77;;;;;;;;;;5057729;28;20666;-71
2021/11/05 12:02:42;;;;;;;2.70;0.90;;;;;;;;;;5063088;28;20490;-73
2021/11/05 12:05:32;;;;;;;4.60;1.00;;;;;;;;;;5058362;28;20395;-72
2021/11/05 12:08:20;;;;;;;1.80;0.90;;;;;;;;;;5057304;28;20268;-71
2021/11/05 12:10:54;;;;;;;1.17;0.80;;;;;;;;;;5063224;28;20617;-72
2021/11/05 12:13:36;;;;;;;1.80;1.10;;;;;;;;;;5057973;28;20962;-71
2021/11/05 12:16:26;;;;;;;1.10;0.90;;;;;;;;;;5054689;28;20217;-72
2021/11/05 12:19:07;;;;;;;3.20;1.00;;;;;;;;;;5056185;28;20231;-71
2021/11/05 12:21:40;;;;;;;1.50;0.80;;;;;;;;;;5065654;28;20195;-73
2021/11/05 12:24:27;;;;;;;1.30;1.00;;;;;;;;;;5064119;28;20730;-72
2021/11/05 12:27:10;;;;;;;3.10;1.00;;;;;;;;;;5063527;28;20288;-71
2021/11/05 12:29:54;;;;;;;1.23;0.80;;;;;;;;;;5053514;28;20782;-76
2021/11/05 12:32:28;;;;;;;1.77;0.90;;;;;;;;;;5046726;28;20190;-73
2021/11/05 12:35:19;;;;;;;1.50;0.80;;;;;;;;;;5035598;28;20308;-73
2021/11/05 12:38:07;;;;;;;2.33;0.77;;;;;;;;;;5040080;28;20215;-71
2021/11/05 12:40:44;;;;;;;0.90;0.70;;;;;;;;;;5039386;28;20217;-70
2021/11/05 12:43:15;;;;;;;1.63;0.80;;;;;;;;;;5039723;28;20198;-69
2021/11/05 12:46:04;;;;;;;1.70;1.00;;;;;;;;;;5042443;28;20226;-73
2021/11/05 12:48:47;;;;;;;1.40;0.70;;;;;;;;;;5036943;28;20278;-75
2021/11/05 12:51:26;;;;;;;2.30;0.80;;;;;;;;;;5044392;28;20214;-69
2021/11/05 12:54:15;;;;;;;5.70;1.30;;;;;;;;;;5023634;28;20218;-71
2021/11/05 12:56:57;;;;;;;3.13;0.83;;;;;;;;;;5042619;28;20433;-73
2021/11/05 12:59:28;;;;;;;1.50;0.63;;;;;;;;;;5039565;28;20201;-70
2021/11/05 13:02:03;;;;;;;0.87;0.57;;;;;;;;;;5041122;28;20217;-71
2021/11/05 13:04:40;;;;;;;1.60;0.73;;;;;;;;;;5038986;28;20680;-70
2021/11/05 13:07:09;;;;;;;4.23;1.07;;;;;;;;;;5020079;28;20235;-71
2021/11/05 13:09:40;;;;;;;2.00;0.87;;;;;;;;;;5027762;28;20202;-72
2021/11/05 13:12:17;;;;;;;0.83;0.70;;;;;;;;;;5027108;28;20202;-70
2021/11/05 13:14:59;;;;;;;1.73;1.03;;;;;;;;;;5029281;28;20222;-67
2021/11/05 13:17:41;;;;;;;1.93;0.80;;;;;;;;;;5041626;28;20319;-73
2021/11/05 13:20:26;;;;;;;2.23;0.90;;;;;;;;;;5031481;28;20202;-72
2021/11/05 13:22:55;;;;;;;1.70;0.80;;;;;;;;;;5040587;28;20214;-71
2021/11/05 13:25:40;;;;;;;0.83;0.80;;;;;;;;;;5017953;28;20206;-78
2021/11/05 13:28:33;;;;;;;1.10;0.70;;;;;;;;;;5033745;28;20208;-74
2021/11/05 13:31:08;;;;;;;0.93;0.70;;;;;;;;;;5040348;28;20214;-71
2021/11/05 13:33:39;;;;;;;1.33;0.77;;;;;;;;;;5026615;28;20213;-72
2021/11/05 13:36:13;;;;;;;1.70;0.70;;;;;;;;;;5057317;28;20530;-73
2021/11/05 13:38:49;;;;;;;1.80;0.90;;;;;;;;;;5059529;28;20222;-74
2021/11/05 13:41:31;;;;;;;2.70;1.00;;;;;;;;;;5037568;28;20518;-71
2021/11/05 13:44:02;;;;;;;1.00;0.60;;;;;;;;;;5042561;28;20221;-71